Time;durP1;ratioP1;P1;durP2;ratioP2;P2;SDS_P1;SDS_P2;PMS_P1;PMS_P2;Temp;Humidity;BMP_temperature;BMP_pressure;BME280_temperature;BME280_humidity;BME280_pressure;Samples;Min_cycle;Max_cycle;Signal;HPM_P1;HPM_P2
2023/05/25 00:02:03;;;;;;;9.60;3.70;;;10.00;1.00;;;;;;5078456;28;20191;-56
2023/05/25 00:04:49;;;;;;;6.50;3.57;;;9.90;1.00;;;;;;5096801;28;20572;-57
2023/05/25 00:07:15;;;;;;;8.10;3.60;;;9.90;1.00;;;;;;5096259;28;20507;-55
2023/05/25 00:09:43;;;;;;;7.47;3.43;;;9.90;1.00;;;;;;5095969;28;20434;-55
2023/05/25 00:12:09;;;;;;;9.43;4.27;;;9.90;1.00;;;;;;5097667;28;20482;-55
2023/05/25 00:14:35;;;;;;;8.37;4.10;;;9.90;1.00;;;;;;5080057;28;20426;-56
2023/05/25 00:17:02;;;;;;;6.30;3.73;;;10.00;1.00;;;;;;5097544;28;20456;-56
2023/05/25 00:19:31;;;;;;;5.77;3.37;;;10.00;1.00;;;;;;5097213;28;20440;-55
2023/05/25 00:22:00;;;;;;;8.03;3.83;;;10.00;1.00;;;;;;5097225;28;20441;-57
2023/05/25 00:24:27;;;;;;;6.97;3.93;;;10.00;1.00;;;;;;5110101;28;20449;-57
2023/05/25 00:26:53;;;;;;;6.80;3.60;;;10.00;1.00;;;;;;5100204;28;20503;-56
2023/05/25 00:29:19;;;;;;;7.47;4.07;;;9.90;1.00;;;;;;5096856;28;20478;-57
2023/05/25 00:31:46;;;;;;;8.20;3.57;;;9.90;1.00;;;;;;5097154;28;20269;-57
2023/05/25 00:34:11;;;;;;;9.10;4.20;;;9.90;1.00;;;;;;5096959;28;20831;-56
2023/05/25 00:36:37;;;;;;;11.27;4.83;;;9.90;1.00;;;;;;5097237;28;20204;-57
2023/05/25 00:39:02;;;;;;;6.53;4.23;;;9.90;1.00;;;;;;5095534;28;20212;-56
2023/05/25 00:41:30;;;;;;;8.33;4.50;;;9.80;4.20;;;;;;5095873;28;20173;-56
2023/05/25 00:43:55;;;;;;;10.40;3.77;;;9.80;9.30;;;;;;5095860;28;20234;-54
2023/05/25 00:46:21;;;;;;;9.13;3.90;;;9.80;15.10;;;;;;5095979;28;20418;-53
2023/05/25 00:48:46;;;;;;;9.63;4.10;;;9.80;24.30;;;;;;5096140;28;20196;-57
2023/05/25 00:51:13;;;;;;;6.00;4.00;;;9.80;30.00;;;;;;5096774;28;20196;-57
2023/05/25 00:53:39;;;;;;;8.40;4.93;;;9.80;41.90;;;;;;5095582;28;20172;-55
2023/05/25 00:56:14;;;;;;;8.67;3.90;;;9.70;48.50;;;;;;5094562;28;20422;-58
2023/05/25 00:58:42;;;;;;;6.10;3.83;;;9.70;93.90;;;;;;5096057;28;20604;-57
2023/05/25 01:01:10;;;;;;;6.50;3.77;;;9.70;99.90;;;;;;5078416;28;20442;-55
2023/05/25 01:03:36;;;;;;;9.17;4.47;;;9.70;99.90;;;;;;5095997;28;20517;-56
2023/05/25 01:06:06;;;;;;;8.23;4.03;;;9.60;99.90;;;;;;5094956;28;20426;-56
2023/05/25 01:08:33;;;;;;;10.30;3.67;;;9.60;99.90;;;;;;5096486;28;20441;-56
2023/05/25 01:10:59;;;;;;;5.60;3.80;;;9.70;99.90;;;;;;5095127;28;20414;-56
2023/05/25 01:13:26;;;;;;;9.33;3.50;;;9.70;99.90;;;;;;5095648;28;20419;-55
2023/05/25 01:15:52;;;;;;;6.77;3.73;;;9.70;99.90;;;;;;5096273;28;20433;-55
2023/05/25 01:18:17;;;;;;;9.50;4.50;;;9.60;99.90;;;;;;5096854;28;20442;-56
2023/05/25 01:21:19;;;;;;;9.60;4.70;;;9.60;99.90;;;;;;5097197;28;20255;-56
2023/05/25 01:24:02;;;;;;;12.30;4.97;;;9.50;99.90;;;;;;5097272;28;20180;-56
2023/05/25 01:26:33;;;;;;;6.70;4.27;;;9.50;99.90;;;;;;5096177;28;20692;-57
2023/05/25 01:29:01;;;;;;;12.40;4.60;;;9.50;99.90;;;;;;5078486;28;20796;-57
2023/05/25 01:31:28;;;;;;;8.47;4.07;;;9.50;99.90;;;;;;5096750;28;20429;-57
2023/05/25 01:33:54;;;;;;;7.67;4.10;;;9.50;99.90;;;;;;5095718;28;20422;-54
2023/05/25 01:36:20;;;;;;;12.20;5.83;;;9.50;99.90;;;;;;5095069;28;21002;-58
2023/05/25 01:38:45;;;;;;;7.77;5.80;;;9.40;99.90;;;;;;5097540;28;20515;-57
2023/05/25 01:41:11;;;;;;;7.00;4.70;;;9.40;99.90;;;;;;5100480;28;20419;-58
2023/05/25 01:43:36;;;;;;;10.40;4.20;;;9.40;99.90;;;;;;5099418;28;20600;-57
2023/05/25 01:46:23;;;;;;;7.63;4.50;;;9.40;99.90;;;;;;5100147;28;20183;-55
2023/05/25 01:49:00;;;;;;;8.43;4.47;;;9.40;99.90;;;;;;5099211;28;20203;-56
2023/05/25 01:51:35;;;;;;;8.10;4.27;;;9.40;99.90;;;;;;5099296;28;20774;-57
2023/05/25 01:54:26;;;;;;;9.17;4.50;;;9.40;99.90;;;;;;5098395;28;20476;-57
2023/05/25 01:56:53;;;;;;;8.47;4.40;;;9.40;99.90;;;;;;5099515;28;20733;-57
2023/05/25 01:59:20;;;;;;;6.70;4.43;;;9.40;99.90;;;;;;5098710;28;20560;-56
2023/05/25 02:01:47;;;;;;;7.07;4.37;;;9.40;99.90;;;;;;5099753;28;20415;-55
2023/05/25 02:04:14;;;;;;;10.20;4.83;;;9.50;99.90;;;;;;5098733;28;20411;-56
2023/05/25 02:06:40;;;;;;;7.20;4.40;;;9.40;99.90;;;;;;5081717;28;20525;-57
2023/05/25 02:09:05;;;;;;;13.03;4.70;;;9.40;99.90;;;;;;5099959;28;20529;-56
2023/05/25 02:11:31;;;;;;;6.80;4.73;;;9.40;99.90;;;;;;5098759;28;20420;-54
2023/05/25 02:13:56;;;;;;;16.07;5.83;;;9.40;1.00;;;;;;5100133;28;20185;-56
2023/05/25 02:16:22;;;;;;;7.07;4.13;;;9.40;99.90;;;;;;5099211;28;20227;-58
2023/05/25 02:18:49;;;;;;;5.77;4.27;;;9.30;1.00;;;;;;5116925;28;20265;-55
2023/05/25 02:21:15;;;;;;;7.90;4.00;;;9.30;1.00;;;;;;5120323;28;20175;-57
2023/05/25 02:23:41;;;;;;;7.23;4.23;;;9.30;1.00;;;;;;5120115;28;20604;-57
2023/05/25 02:26:07;;;;;;;8.60;4.67;;;9.20;1.00;;;;;;5119645;28;20524;-59
2023/05/25 02:28:32;;;;;;;6.53;4.30;;;9.20;1.00;;;;;;5101478;28;20851;-58
2023/05/25 02:30:58;;;;;;;5.70;4.10;;;9.20;1.00;;;;;;5119451;28;20234;-56
2023/05/25 02:33:24;;;;;;;6.13;4.77;;;9.20;1.00;;;;;;5119278;28;20207;-57
2023/05/25 02:35:49;;;;;;;9.60;4.40;;;9.20;1.00;;;;;;5119615;28;20176;-57
2023/05/25 02:38:15;;;;;;;12.20;4.97;;;9.20;1.00;;;;;;5119483;28;20621;-56
2023/05/25 02:40:40;;;;;;;11.60;4.77;;;9.20;1.00;;;;;;5119717;28;20167;-56
2023/05/25 02:43:06;;;;;;;9.27;4.63;;;9.20;1.00;;;;;;5119229;28;20207;-55
2023/05/25 02:45:32;;;;;;;10.00;5.07;;;9.20;1.00;;;;;;5119046;28;20561;-57
2023/05/25 02:47:57;;;;;;;7.13;4.77;;;9.20;1.00;;;;;;5118587;28;20237;-54
2023/05/25 02:50:23;;;;;;;9.90;4.33;;;9.20;1.00;;;;;;5118920;28;20445;-53
2023/05/25 02:52:48;;;;;;;7.10;5.10;;;9.20;1.00;;;;;;5119273;28;20211;-57
2023/05/25 02:55:17;;;;;;;10.23;5.30;;;9.20;1.00;;;;;;5118565;28;20472;-58
2023/05/25 03:01:04;;;;;;;7.43;5.03;;;9.10;1.00;;;;;;5117949;28;21006;-56
2023/05/25 03:03:30;;;;;;;7.60;5.40;;;9.10;1.00;;;;;;5118885;28;20426;-56
2023/05/25 03:05:56;;;;;;;9.40;5.50;;;9.10;1.00;;;;;;5117180;28;20410;-56
2023/05/25 03:08:22;;;;;;;10.30;5.43;;;9.10;1.00;;;;;;5119220;28;20172;-55
2023/05/25 03:10:48;;;;;;;8.73;5.33;;;9.00;1.00;;;;;;5117365;28;20397;-55
2023/05/25 03:13:13;;;;;;;10.77;5.53;;;9.00;15.10;;;;;;5117822;28;20576;-57
2023/05/25 03:15:39;;;;;;;8.13;5.30;;;9.00;39.10;;;;;;5099942;28;20229;-56
2023/05/25 03:18:05;;;;;;;10.37;5.80;;;8.90;99.90;;;;;;5117187;28;20183;-58
2023/05/25 03:20:32;;;;;;;14.93;6.53;;;8.90;99.90;;;;;;5116451;28;20180;-58
2023/05/25 03:22:57;;;;;;;8.00;5.37;;;8.80;99.90;;;;;;5116278;28;20525;-56
2023/05/25 03:25:23;;;;;;;8.07;6.67;;;8.80;99.90;;;;;;5116351;28;20457;-56
2023/05/25 03:27:52;;;;;;;10.13;5.70;;;8.80;99.90;;;;;;5116976;28;20453;-56
2023/05/25 03:30:19;;;;;;;7.93;4.80;;;8.70;99.90;;;;;;5116544;28;20545;-57
2023/05/25 03:32:45;;;;;;;8.63;5.50;;;8.70;1.00;;;;;;5117504;28;20414;-55
2023/05/25 03:35:10;;;;;;;7.30;4.50;;;8.70;1.00;;;;;;5117819;28;20486;-57
2023/05/25 03:37:36;;;;;;;9.77;5.50;;;8.70;1.00;;;;;;5116403;28;20532;-57
2023/05/25 03:40:02;;;;;;;8.90;5.20;;;8.70;1.00;;;;;;5116721;28;20195;-57
2023/05/25 03:42:27;;;;;;;8.10;5.20;;;8.60;1.00;;;;;;5116620;28;20176;-58
2023/05/25 03:44:53;;;;;;;9.43;6.00;;;8.70;1.00;;;;;;5116429;28;20463;-57
2023/05/25 03:47:18;;;;;;;10.03;5.10;;;8.60;23.00;;;;;;5115821;28;20172;-59
2023/05/25 03:49:44;;;;;;;10.30;6.17;;;8.60;65.90;;;;;;5115592;28;20199;-56
2023/05/25 03:52:10;;;;;;;6.93;5.50;;;8.60;99.90;;;;;;5115023;28;20294;-55
2023/05/25 03:54:35;;;;;;;10.60;5.60;;;8.60;99.90;;;;;;5115104;28;20183;-58
2023/05/25 03:57:02;;;;;;;7.37;5.00;;;8.60;99.90;;;;;;5114932;28;20250;-56
2023/05/25 03:59:28;;;;;;;9.30;5.53;;;8.60;1.00;;;;;;5098623;28;20235;-56
2023/05/25 04:01:54;;;;;;;9.33;5.60;;;8.50;1.00;;;;;;5116229;28;20717;-57
2023/05/25 04:04:19;;;;;;;11.70;6.10;;;8.50;1.00;;;;;;5116850;28;20400;-56
2023/05/25 04:06:47;;;;;;;10.20;5.47;;;8.50;1.00;;;;;;5116895;28;20431;-56
2023/05/25 04:09:14;;;;;;;13.33;5.77;;;8.50;1.00;;;;;;5116680;28;20230;-57
2023/05/25 04:11:40;;;;;;;8.63;4.90;;;8.50;1.00;;;;;;5116772;28;20421;-57
2023/05/25 04:14:05;;;;;;;8.40;5.70;;;8.50;99.90;;;;;;5116974;28;20429;-57
2023/05/25 04:16:31;;;;;;;8.97;5.50;;;8.50;99.90;;;;;;5115827;28;20264;-55
2023/05/25 04:18:56;;;;;;;9.33;5.80;;;8.50;99.90;;;;;;5115722;28;20243;-56
2023/05/25 04:21:22;;;;;;;9.13;5.60;;;8.50;99.90;;;;;;5115509;28;20176;-56
2023/05/25 04:23:48;;;;;;;12.13;6.47;;;8.50;99.90;;;;;;5115140;28;20172;-56
2023/05/25 04:26:15;;;;;;;14.00;6.87;;;8.50;99.90;;;;;;5097880;28;20176;-56
2023/05/25 04:28:41;;;;;;;7.87;6.17;;;8.60;99.90;;;;;;5115673;28;20188;-57
2023/05/25 04:31:07;;;;;;;11.30;6.27;;;8.70;99.90;;;;;;5116974;28;20491;-58
2023/05/25 04:33:37;;;;;;;7.27;5.33;;;8.70;54.70;;;;;;5116911;28;20175;-58
2023/05/25 04:36:03;;;;;;;12.17;6.57;;;8.80;1.00;;;;;;5116080;28;20833;-55
2023/05/25 04:38:29;;;;;;;11.93;6.00;;;8.90;1.00;;;;;;5115963;28;20449;-57
2023/05/25 04:40:56;;;;;;;11.43;6.13;;;8.90;1.00;;;;;;5116489;28;20607;-56
2023/05/25 04:43:24;;;;;;;12.87;6.37;;;9.00;1.00;;;;;;5116158;28;20815;-55
2023/05/25 04:45:51;;;;;;;10.13;6.07;;;9.00;1.00;;;;;;5115376;28;20474;-56
2023/05/25 04:48:17;;;;;;;10.80;5.93;;;9.10;1.00;;;;;;5115362;28;20421;-55
2023/05/25 04:50:42;;;;;;;12.57;6.43;;;9.10;1.00;;;;;;5115394;28;20401;-55
2023/05/25 04:53:08;;;;;;;16.33;6.63;;;9.20;1.00;;;;;;5116298;28;20429;-56
2023/05/25 04:55:34;;;;;;;11.80;5.70;;;9.30;1.00;;;;;;5113540;28;20563;-56
2023/05/25 04:58:00;;;;;;;8.93;6.50;;;9.40;99.90;;;;;;5103650;28;20179;-55
2023/05/25 05:00:27;;;;;;;15.47;6.37;;;9.50;99.90;;;;;;5092646;28;20480;-59
2023/05/25 05:02:57;;;;;;;10.20;6.20;;;9.60;99.90;;;;;;5099246;28;20839;-58
2023/05/25 05:05:27;;;;;;;7.83;6.37;;;9.60;99.90;;;;;;5096776;28;20498;-58
2023/05/25 05:07:54;;;;;;;16.40;6.30;;;9.60;27.60;;;;;;5110377;28;20418;-57
2023/05/25 05:10:22;;;;;;;11.50;6.27;;;9.70;68.10;;;;;;5094899;28;20546;-56
2023/05/25 05:12:49;;;;;;;11.70;6.27;;;9.70;41.90;;;;;;5076780;28;20176;-56
2023/05/25 05:15:16;;;;;;;10.60;6.07;;;9.80;1.00;;;;;;5116041;28;20429;-56
2023/05/25 05:17:42;;;;;;;10.03;6.20;;;9.80;1.00;;;;;;5096373;28;20668;-56
2023/05/25 05:20:08;;;;;;;12.73;7.17;;;9.90;1.00;;;;;;5116379;28;20498;-57
2023/05/25 05:22:34;;;;;;;8.90;6.10;;;9.90;1.00;;;;;;5114578;28;20255;-56
2023/05/25 05:25:00;;;;;;;9.57;6.53;;;10.00;1.00;;;;;;5100879;28;20509;-55
2023/05/25 05:27:25;;;;;;;9.87;6.50;;;10.10;1.00;;;;;;5117515;28;20241;-56
2023/05/25 05:29:51;;;;;;;7.77;6.03;;;10.10;1.00;;;;;;5114639;28;20796;-57
2023/05/25 05:32:16;;;;;;;10.50;7.03;;;10.20;1.00;;;;;;5116950;28;20176;-56
2023/05/25 05:34:42;;;;;;;12.93;6.80;;;10.30;1.00;;;;;;5117077;28;20172;-58
2023/05/25 05:37:08;;;;;;;11.93;7.00;;;10.40;1.00;;;;;;5116084;28;20322;-56
2023/05/25 05:39:33;;;;;;;10.40;6.00;;;10.50;99.90;;;;;;5117691;28;20461;-55
2023/05/25 05:42:00;;;;;;;11.20;6.30;;;10.60;99.90;;;;;;5115649;28;20577;-58
2023/05/25 05:44:25;;;;;;;13.70;6.40;;;10.70;99.90;;;;;;5116816;28;20264;-54
2023/05/25 05:46:51;;;;;;;10.13;6.70;;;10.80;99.90;;;;;;5117970;28;20409;-55
2023/05/25 05:49:17;;;;;;;14.60;7.07;;;10.90;99.90;;;;;;5097771;28;20183;-59
2023/05/25 05:51:42;;;;;;;10.30;7.13;;;11.00;95.40;;;;;;5097281;28;20556;-57
2023/05/25 05:54:08;;;;;;;8.40;5.63;;;11.20;1.00;;;;;;5115597;28;20531;-57
2023/05/25 05:56:34;;;;;;;10.90;6.13;;;11.30;1.00;;;;;;5115998;28;20320;-53
2023/05/25 05:58:59;;;;;;;10.40;6.40;;;11.30;1.00;;;;;;5114743;28;20196;-58
2023/05/25 06:01:25;;;;;;;16.60;7.77;;;11.50;1.00;;;;;;5116464;28;20270;-57
2023/05/25 06:03:54;;;;;;;9.40;6.33;;;11.60;1.00;;;;;;5096299;28;20198;-60
2023/05/25 06:06:20;;;;;;;13.13;7.63;;;11.80;1.00;;;;;;5115280;28;20680;-57
2023/05/25 06:08:46;;;;;;;11.93;6.77;;;12.10;1.00;;;;;;5112178;28;20439;-57
2023/05/25 06:11:11;;;;;;;12.70;7.37;;;12.30;1.00;;;;;;5115577;28;20185;-56
2023/05/25 06:13:37;;;;;;;9.97;6.83;;;12.50;99.90;;;;;;5117335;28;20180;-56
2023/05/25 06:16:02;;;;;;;9.87;6.77;;;12.60;99.90;;;;;;5118168;28;20180;-57
2023/05/25 06:18:28;;;;;;;7.80;6.60;;;12.80;99.90;;;;;;5117554;28;20167;-57
2023/05/25 06:20:54;;;;;;;15.37;6.83;;;12.90;99.90;;;;;;5113691;28;20187;-55
2023/05/25 06:23:20;;;;;;;10.27;6.70;;;13.00;99.90;;;;;;5113685;28;20592;-55
2023/05/25 06:25:45;;;;;;;10.00;7.30;;;13.10;99.90;;;;;;5113592;28;20194;-57
2023/05/25 06:28:11;;;;;;;13.20;7.00;;;13.20;99.90;;;;;;5114756;28;20842;-55
2023/05/25 06:30:37;;;;;;;12.93;6.87;;;13.30;99.90;;;;;;5114173;28;20310;-58
2023/05/25 06:33:02;;;;;;;10.07;6.47;;;13.50;99.90;;;;;;5116682;28;20630;-58
2023/05/25 06:35:28;;;;;;;14.90;7.17;;;13.60;99.90;;;;;;5096225;28;20472;-57
2023/05/25 06:37:54;;;;;;;11.20;7.87;;;13.70;99.90;;;;;;5114547;28;20232;-57
2023/05/25 06:40:21;;;;;;;10.93;7.10;;;13.90;99.90;;;;;;5098992;28;20576;-56
2023/05/25 06:42:47;;;;;;;13.00;6.90;;;13.90;99.90;;;;;;5115256;28;20421;-57
2023/05/25 06:45:13;;;;;;;12.90;6.93;;;13.90;99.90;;;;;;5117065;28;20472;-55
2023/05/25 06:47:39;;;;;;;9.07;7.33;;;14.20;99.90;;;;;;5117397;28;20531;-57
2023/05/25 06:50:05;;;;;;;12.13;7.73;;;14.30;99.90;;;;;;5115297;28;20347;-54
2023/05/25 06:52:31;;;;;;;11.43;7.30;;;14.40;99.90;;;;;;5097677;28;20175;-56
2023/05/25 06:54:57;;;;;;;7.20;5.53;;;14.50;89.20;;;;;;5116601;28;20432;-57
2023/05/25 06:57:23;;;;;;;13.90;7.27;;;14.70;71.40;;;;;;5098311;28;20558;-56
2023/05/25 06:59:49;;;;;;;11.43;6.50;;;14.90;54.10;;;;;;5115950;28;20202;-53
2023/05/25 07:02:15;;;;;;;11.00;7.40;;;15.00;48.70;;;;;;5116694;28;20410;-55
2023/05/25 07:04:41;;;;;;;11.63;7.43;;;15.10;32.60;;;;;;5083147;28;20180;-59
2023/05/25 07:07:06;;;;;;;12.80;7.70;;;15.20;31.40;;;;;;5117154;28;20417;-55
2023/05/25 07:09:32;;;;;;;11.77;6.90;;;15.40;14.60;;;;;;5117076;28;20207;-56
2023/05/25 07:11:58;;;;;;;13.57;7.70;;;15.40;1.00;;;;;;5116554;28;20424;-55
2023/05/25 07:14:24;;;;;;;11.07;6.57;;;15.40;1.00;;;;;;5116897;28;20175;-56
2023/05/25 07:16:50;;;;;;;10.60;7.90;;;15.40;1.00;;;;;;5117688;28;20576;-57
2023/05/25 07:19:15;;;;;;;10.83;8.03;;;15.30;2.50;;;;;;5118087;28;20726;-57
2023/05/25 07:21:41;;;;;;;11.37;7.47;;;15.20;1.00;;;;;;5100286;28;20171;-53
2023/05/25 07:24:07;;;;;;;12.43;7.00;;;15.20;1.00;;;;;;5117577;28;20200;-55
2023/05/25 07:26:33;;;;;;;9.77;7.37;;;15.20;18.60;;;;;;5098431;28;20175;-54
2023/05/25 07:28:59;;;;;;;8.57;5.93;;;15.40;29.70;;;;;;5115188;28;20464;-54
2023/05/25 07:31:25;;;;;;;10.70;7.53;;;15.50;15.80;;;;;;5115538;28;20497;-57
2023/05/25 07:33:52;;;;;;;10.47;7.57;;;15.70;4.40;;;;;;5097612;28;20429;-53
2023/05/25 07:36:18;;;;;;;11.97;6.53;;;15.90;1.00;;;;;;5113969;28;20175;-56
2023/05/25 07:38:43;;;;;;;14.70;6.47;;;15.80;1.00;;;;;;5115828;28;20461;-55
2023/05/25 07:41:10;;;;;;;8.70;6.30;;;15.80;1.00;;;;;;5116124;28;20486;-55
2023/05/25 07:43:36;;;;;;;10.70;7.83;;;15.80;1.00;;;;;;5115757;28;20195;-57
2023/05/25 07:46:02;;;;;;;8.47;6.37;;;15.70;1.00;;;;;;5115463;28;20421;-56
2023/05/25 07:48:27;;;;;;;12.23;6.40;;;15.70;2.00;;;;;;5114716;28;20278;-53
2023/05/25 07:50:53;;;;;;;12.17;6.57;;;15.90;1.00;;;;;;5114505;28;20705;-54
2023/05/25 07:53:20;;;;;;;14.30;7.87;;;16.10;1.00;;;;;;5113991;28;20830;-58
2023/05/25 07:55:45;;;;;;;8.07;6.83;;;16.30;1.00;;;;;;5111437;28;20324;-55
2023/05/25 07:58:11;;;;;;;9.80;7.63;;;16.50;1.00;;;;;;5112054;28;20414;-57
2023/05/25 08:00:36;;;;;;;11.87;6.60;;;16.70;1.00;;;;;;5114394;28;20268;-54
2023/05/25 08:03:02;;;;;;;11.77;7.20;;;16.90;1.00;;;;;;5114592;28;20187;-53
2023/05/25 08:05:28;;;;;;;10.50;7.00;;;17.10;1.00;;;;;;5115824;28;20189;-53
2023/05/25 08:07:53;;;;;;;13.40;6.80;;;17.30;1.00;;;;;;5114527;28;20182;-54
2023/05/25 08:10:20;;;;;;;10.50;7.20;;;17.50;1.00;;;;;;5116386;28;20834;-56
2023/05/25 08:12:45;;;;;;;10.60;7.73;;;17.80;1.00;;;;;;5114449;28;20596;-54
2023/05/25 08:15:12;;;;;;;11.07;7.70;;;18.00;1.00;;;;;;5098076;28;20706;-57
2023/05/25 08:17:38;;;;;;;13.57;7.30;;;18.20;1.00;;;;;;5114640;28;20174;-54
2023/05/25 08:20:07;;;;;;;7.13;6.43;;;18.40;1.00;;;;;;5116671;28;20909;-55
2023/05/25 08:22:33;;;;;;;9.27;6.47;;;18.60;1.00;;;;;;5097144;28;20429;-53
2023/05/25 08:24:59;;;;;;;12.23;7.50;;;19.00;1.00;;;;;;5115472;28;20408;-53
2023/05/25 08:27:25;;;;;;;10.03;7.10;;;19.30;1.00;;;;;;5115952;28;20512;-57
2023/05/25 08:29:51;;;;;;;11.83;7.30;;;19.50;1.00;;;;;;5117974;28;20249;-54
2023/05/25 08:32:16;;;;;;;11.57;7.43;;;19.50;1.00;;;;;;5117717;28;20191;-54
2023/05/25 08:34:42;;;;;;;15.03;8.83;;;19.70;1.00;;;;;;5117642;28;20561;-50
2023/05/25 08:37:08;;;;;;;8.90;6.83;;;20.00;1.00;;;;;;5116605;28;20179;-53
2023/05/25 08:39:33;;;;;;;16.30;7.97;;;20.20;1.00;;;;;;5117471;28;20285;-54
2023/05/25 08:41:59;;;;;;;12.33;7.20;;;20.50;1.00;;;;;;5117167;28;20195;-51
2023/05/25 08:44:26;;;;;;;10.77;8.43;;;21.00;1.00;;;;;;5117361;28;20178;-52
2023/05/25 08:46:52;;;;;;;14.97;8.93;;;21.10;1.00;;;;;;5117157;28;20425;-50
2023/05/25 08:49:17;;;;;;;10.87;8.30;;;21.20;1.00;;;;;;5103259;28;20433;-52
2023/05/25 08:51:50;;;;;;;11.10;7.40;;;21.20;1.00;;;;;;5101733;28;20171;-53
2023/05/25 08:54:22;;;;;;;14.90;8.20;;;21.50;1.00;;;;;;5118627;28;20187;-51
2023/05/25 08:56:50;;;;;;;14.57;7.97;;;21.80;1.00;;;;;;5120098;28;20504;-52
2023/05/25 08:59:27;;;;;;;13.83;7.77;;;21.90;1.00;;;;;;5119231;28;20739;-51
2023/05/25 09:02:01;;;;;;;10.80;7.23;;;22.10;1.00;;;;;;5118307;28;20482;-54
2023/05/25 09:04:28;;;;;;;9.43;8.53;;;22.40;1.00;;;;;;5119943;28;20451;-54
2023/05/25 09:06:54;;;;;;;10.20;8.63;;;22.60;1.00;;;;;;5119810;28;20421;-55
2023/05/25 09:09:20;;;;;;;12.33;8.00;;;22.60;1.00;;;;;;5120374;28;20683;-53
2023/05/25 09:11:48;;;;;;;10.80;7.17;;;22.60;1.00;;;;;;5100714;28;20417;-54
2023/05/25 09:14:14;;;;;;;10.20;8.73;;;22.50;1.00;;;;;;5100429;28;20769;-56
2023/05/25 09:16:40;;;;;;;12.00;9.10;;;22.60;1.00;;;;;;5082622;28;20539;-55
2023/05/25 09:19:06;;;;;;;10.00;9.03;;;23.00;1.00;;;;;;5100477;28;20281;-53
2023/05/25 09:21:31;;;;;;;9.63;8.20;;;22.90;1.00;;;;;;5099576;28;20491;-53
2023/05/25 09:23:59;;;;;;;10.30;7.00;;;23.20;1.00;;;;;;5098321;28;20184;-55
2023/05/25 09:26:26;;;;;;;11.70;7.97;;;23.50;1.00;;;;;;5080920;28;20614;-53
2023/05/25 09:28:52;;;;;;;12.10;7.90;;;23.80;1.00;;;;;;5081964;28;20429;-56
2023/05/25 09:31:17;;;;;;;8.87;7.63;;;24.40;1.00;;;;;;5079155;28;20426;-53
2023/05/25 09:33:43;;;;;;;11.70;8.00;;;24.80;1.00;;;;;;5098717;28;20271;-53
2023/05/25 09:36:11;;;;;;;9.87;8.47;;;24.80;1.00;;;;;;5080571;28;20554;-54
2023/05/25 09:38:37;;;;;;;14.13;8.50;;;24.40;1.00;;;;;;5097585;28;20265;-54
2023/05/25 09:41:03;;;;;;;10.17;9.07;;;23.70;1.00;;;;;;5081196;28;20512;-53
2023/05/25 09:43:29;;;;;;;9.87;8.30;;;23.50;1.00;;;;;;5097408;28;20177;-52
2023/05/25 09:45:54;;;;;;;9.73;8.17;;;23.00;1.00;;;;;;5079386;28;20433;-52
2023/05/25 09:48:21;;;;;;;13.70;9.90;;;22.90;1.00;;;;;;5096860;28;20273;-51
2023/05/25 09:50:47;;;;;;;10.30;8.30;;;22.70;1.00;;;;;;5094812;28;20264;-54
2023/05/25 09:53:13;;;;;;;10.83;8.20;;;22.70;1.00;;;;;;5095735;28;20493;-52
2023/05/25 09:55:39;;;;;;;8.90;8.10;;;23.30;1.00;;;;;;5099221;28;20423;-53
2023/05/25 09:58:06;;;;;;;13.03;9.43;;;23.90;1.00;;;;;;5098579;28;20168;-54
2023/05/25 10:00:31;;;;;;;12.60;8.63;;;24.00;1.00;;;;;;5096626;28;20440;-54
2023/05/25 10:02:57;;;;;;;10.20;9.17;;;24.00;1.00;;;;;;5079874;28;20895;-53
2023/05/25 10:05:22;;;;;;;9.23;7.40;;;24.20;1.00;;;;;;5098817;28;20188;-56
2023/05/25 10:07:49;;;;;;;8.23;7.43;;;24.30;1.00;;;;;;5098107;28;20558;-53
2023/05/25 10:10:15;;;;;;;11.13;9.40;;;24.60;1.00;;;;;;5079662;28;20168;-52
2023/05/25 10:12:42;;;;;;;8.23;7.40;;;24.80;1.00;;;;;;5096706;28;20423;-56
2023/05/25 10:15:12;;;;;;;17.80;8.77;;;24.90;1.00;;;;;;5095825;28;20846;-56
2023/05/25 10:17:49;;;;;;;12.30;8.93;;;24.60;1.00;;;;;;5096844;28;20743;-54
2023/05/25 10:20:15;;;;;;;10.07;8.00;;;24.30;1.00;;;;;;5078110;28;20469;-51
2023/05/25 10:22:49;;;;;;;8.60;7.83;;;24.70;1.00;;;;;;5079489;28;20418;-51
2023/05/25 10:25:30;;;;;;;9.80;8.80;;;25.20;1.00;;;;;;5096530;28;20181;-53
2023/05/25 10:28:03;;;;;;;10.67;8.63;;;25.50;1.00;;;;;;5081110;28;20568;-55
2023/05/25 10:30:29;;;;;;;13.33;8.30;;;25.90;1.00;;;;;;5080656;28;20470;-55
2023/05/25 10:32:58;;;;;;;13.83;9.63;;;26.10;1.00;;;;;;5079432;28;20404;-53
2023/05/25 10:35:24;;;;;;;9.97;8.33;;;25.30;1.00;;;;;;5095773;28;20430;-54
2023/05/25 10:37:53;;;;;;;11.63;8.57;;;24.70;1.00;;;;;;5095865;28;20472;-56
2023/05/25 10:40:22;;;;;;;11.10;9.10;;;24.70;1.00;;;;;;5097771;28;20212;-54
2023/05/25 10:42:50;;;;;;;12.97;8.33;;;24.60;1.00;;;;;;5079723;28;20414;-51
2023/05/25 10:45:16;;;;;;;12.30;7.97;;;24.90;1.00;;;;;;5096211;28;20422;-51
2023/05/25 10:47:41;;;;;;;10.70;8.27;;;25.70;1.00;;;;;;5096458;28;20403;-52
2023/05/25 10:50:17;;;;;;;12.77;8.97;;;25.90;1.00;;;;;;5095662;28;20526;-50
2023/05/25 10:52:43;;;;;;;10.27;7.50;;;26.60;1.00;;;;;;5095813;28;20453;-50
2023/05/25 10:55:09;;;;;;;11.03;8.40;;;27.00;1.00;;;;;;5077553;28;20422;-51
2023/05/25 10:57:34;;;;;;;8.87;8.00;;;27.30;1.00;;;;;;5096692;28;20180;-53
2023/05/25 11:00:09;;;;;;;11.00;8.60;;;27.50;1.00;;;;;;5078912;28;20551;-51
2023/05/25 11:02:54;;;;;;;11.00;7.67;;;27.90;1.00;;;;;;5095322;28;20274;-53
2023/05/25 11:05:26;;;;;;;9.20;8.30;;;27.50;1.00;;;;;;5078927;28;20906;-51
2023/05/25 11:07:59;;;;;;;8.93;8.00;;;27.20;1.00;;;;;;5095855;28;20429;-51
2023/05/25 11:10:49;;;;;;;11.70;8.70;;;26.80;1.00;;;;;;5092706;28;20537;-55
2023/05/25 11:13:30;;;;;;;10.13;7.93;;;26.80;1.00;;;;;;5095675;28;20419;-53
2023/05/25 11:16:16;;;;;;;10.60;8.03;;;26.60;1.00;;;;;;5076907;28;20629;-53
2023/05/25 11:18:44;;;;;;;8.00;7.20;;;25.90;1.00;;;;;;5093696;28;20430;-53
2023/05/25 11:21:12;;;;;;;10.60;7.60;;;26.20;1.00;;;;;;5075057;28;20442;-49
2023/05/25 11:24:13;;;;;;;9.13;8.27;;;26.50;1.00;;;;;;5075341;28;20407;-53
2023/05/25 11:26:55;;;;;;;10.00;8.60;;;26.30;1.00;;;;;;5064005;28;20426;-55
2023/05/25 11:29:21;;;;;;;10.37;8.73;;;25.90;1.00;;;;;;5074835;28;20485;-54
2023/05/25 11:31:55;;;;;;;8.00;6.70;;;25.60;1.00;;;;;;5092523;28;20418;-53
2023/05/25 11:34:27;;;;;;;9.20;7.47;;;25.10;1.00;;;;;;5090870;28;20734;-54
2023/05/25 11:37:01;;;;;;;10.57;7.90;;;24.80;1.00;;;;;;5077576;28;20976;-52
2023/05/25 11:39:27;;;;;;;10.80;8.67;;;24.60;1.00;;;;;;5095080;28;20465;-53
2023/05/25 11:41:54;;;;;;;9.07;8.20;;;24.50;1.00;;;;;;5094403;28;20413;-52
2023/05/25 11:44:27;;;;;;;9.07;8.27;;;24.20;1.00;;;;;;5095114;28;20498;-55
2023/05/25 11:46:56;;;;;;;8.90;8.00;;;24.20;1.00;;;;;;5094824;28;20503;-55
2023/05/25 11:49:23;;;;;;;8.33;7.63;;;24.30;1.00;;;;;;5094417;28;20434;-54
2023/05/25 11:51:49;;;;;;;8.97;7.87;;;24.20;1.00;;;;;;5095904;28;20495;-53
2023/05/25 11:54:25;;;;;;;11.57;7.83;;;24.10;1.00;;;;;;5093513;28;20430;-53
2023/05/25 11:56:52;;;;;;;8.40;7.53;;;24.00;1.00;;;;;;5091890;28;20264;-55
2023/05/25 11:59:18;;;;;;;8.10;7.30;;;23.90;1.00;;;;;;5094328;28;20466;-51
2023/05/25 12:01:43;;;;;;;10.10;7.53;;;23.90;1.00;;;;;;5094542;28;20540;-55
2023/05/25 12:04:10;;;;;;;11.20;7.50;;;24.00;1.00;;;;;;5077681;28;20212;-53
2023/05/25 12:06:36;;;;;;;8.90;7.83;;;24.20;1.00;;;;;;5095133;28;20207;-53
2023/05/25 12:09:07;;;;;;;7.93;6.90;;;24.50;1.00;;;;;;5095512;28;20422;-54
2023/05/25 12:11:34;;;;;;;7.93;6.90;;;25.10;1.00;;;;;;5093603;28;20458;-56
2023/05/25 12:14:02;;;;;;;8.77;7.83;;;25.30;1.00;;;;;;5093062;28;20832;-53
2023/05/25 12:16:29;;;;;;;7.97;7.10;;;25.20;1.00;;;;;;5092830;28;20523;-54
2023/05/25 12:18:55;;;;;;;8.33;7.00;;;25.10;1.00;;;;;;5092349;28;20488;-55
2023/05/25 12:21:21;;;;;;;11.07;8.10;;;25.20;1.00;;;;;;5094059;28;20445;-53
2023/05/25 12:23:47;;;;;;;8.20;7.37;;;25.10;1.00;;;;;;5076527;28;20414;-53
2023/05/25 12:26:15;;;;;;;8.80;7.90;;;25.10;1.00;;;;;;5075216;28;20487;-55
2023/05/25 12:28:57;;;;;;;9.83;7.70;;;25.10;1.00;;;;;;5091673;28;20550;-51
2023/05/25 12:31:25;;;;;;;9.97;7.40;;;25.10;1.00;;;;;;5092766;28;20487;-57
2023/05/25 12:34:11;;;;;;;9.10;8.20;;;25.00;1.00;;;;;;5076420;28;20791;-55
2023/05/25 12:36:47;;;;;;;8.90;7.93;;;24.80;1.00;;;;;;5095197;28;20430;-56
2023/05/25 12:39:14;;;;;;;7.90;7.07;;;24.70;1.00;;;;;;5093462;28;20857;-54
2023/05/25 12:41:43;;;;;;;10.13;7.43;;;24.80;1.00;;;;;;5092158;28;20476;-55
2023/05/25 12:44:31;;;;;;;8.60;7.20;;;24.70;1.00;;;;;;5090056;28;20399;-57
2023/05/25 12:47:10;;;;;;;11.50;7.73;;;24.80;1.00;;;;;;5092938;28;20765;-56
2023/05/25 12:49:37;;;;;;;10.23;7.80;;;25.30;1.00;;;;;;5094646;28;20422;-55
2023/05/25 12:52:04;;;;;;;8.07;6.60;;;25.80;1.00;;;;;;5092227;28;20789;-52
2023/05/25 12:54:39;;;;;;;9.93;8.03;;;25.80;1.00;;;;;;5092604;28;20708;-55
2023/05/25 12:57:07;;;;;;;10.70;7.40;;;25.90;1.00;;;;;;5092703;28;20505;-54
2023/05/25 12:59:35;;;;;;;8.60;7.70;;;26.20;1.00;;;;;;5094576;28;20459;-54